Time;durP1;ratioP1;P1;durP2;ratioP2;P2;SDS_P1;SDS_P2;PMS_P1;PMS_P2;Temp;Humidity;BMP_temperature;BMP_pressure;BME280_temperature;BME280_humidity;BME280_pressure;Samples;Min_cycle;Max_cycle;Signal;HPM_P1;HPM_P2
2023/12/13 00:01:25;;;;;;;;;;;;;;;;;;5050925;28;5160;-56
2023/12/13 00:03:50;;;;;;;;;;;;;;;;;;5053708;28;3423;-55
2023/12/13 00:06:16;;;;;;;;;;;;;;;;;;5051938;28;4588;-56
2023/12/13 00:08:41;;;;;;;;;;;;;;;;;;5058173;28;5212;-55
2023/12/13 00:11:07;;;;;;;;;;;;;;;;;;5051471;28;5094;-56
2023/12/13 00:13:32;;;;;;;;;;;;;;;;;;5047107;28;5161;-56
2023/12/13 00:15:57;;;;;;;;;;;;;;;;;;5048718;28;3305;-56
2023/12/13 00:18:23;;;;;;;;;;;;;;;;;;5048041;28;5046;-57
2023/12/13 00:20:48;;;;;;;;;;;;;;;;;;5052717;28;4929;-57
2023/12/13 00:23:13;;;;;;;;;;;;;;;;;;5058894;28;4665;-57
2023/12/13 00:25:38;;;;;;;;;;;;;;;;;;5046939;28;5187;-56
2023/12/13 00:28:04;;;;;;;;;;;;;;;;;;5053464;28;3297;-54
2023/12/13 00:30:29;;;;;;;;;;;;;;;;;;5049771;28;5006;-56
2023/12/13 00:32:54;;;;;;;;;;;;;;;;;;5049131;28;5127;-57
2023/12/13 00:35:20;;;;;;;;;;;;;;;;;;5053962;28;4834;-57
2023/12/13 00:37:45;;;;;;;;;;;;;;;;;;5065413;28;4995;-55
2023/12/13 00:40:11;;;;;;;;;;;;;;;;;;5067585;28;1914;-56
2023/12/13 00:42:37;;;;;;;;;;;;;;;;;;5064521;28;4431;-58
2023/12/13 00:45:02;;;;;;;;;;;;;;;;;;5051204;28;5307;-57
2023/12/13 00:47:28;;;;;;;;;;;;;;;;;;5059026;28;5128;-56
2023/12/13 00:49:54;;;;;;;;;;;;;;;;;;5060339;28;5416;-55
2023/12/13 00:52:19;;;;;;;;;;;;;;;;;;5065718;28;5167;-56
2023/12/13 00:54:44;;;;;;;;;;;;;;;;;;5058534;28;1141;-56
2023/12/13 00:57:09;;;;;;;;;;;;;;;;;;5063492;28;4952;-55
2023/12/13 00:59:35;;;;;;;;;;;;;;;;;;5039399;28;5453;-56
2023/12/13 01:02:00;;;;;;;;;;;;;;;;;;5061222;28;5236;-58
2023/12/13 01:04:25;;;;;;;;;;;;;;;;;;5059378;28;5185;-57
2023/12/13 01:06:51;;;;;;;;;;;;;;;;;;5060272;28;2098;-57
2023/12/13 01:09:16;;;;;;;;;;;;;;;;;;5061876;28;5128;-56
2023/12/13 01:11:41;;;;;;;;;;;;;;;;;;5053785;28;4867;-57
2023/12/13 01:14:07;;;;;;;;;;;;;;;;;;5051362;28;4553;-56
2023/12/13 01:16:33;;;;;;;;;;;;;;;;;;5064275;28;4588;-56
2023/12/13 01:18:59;;;;;;;;;;;;;;;;;;5058027;28;3316;-53
2023/12/13 01:21:28;;;;;;;;;;;;;;;;;;5060190;28;4591;-55
2023/12/13 01:23:53;;;;;;;;;;;;;;;;;;5064234;28;5006;-54
2023/12/13 01:26:19;;;;;;;;;;;;;;;;;;5030216;28;4977;-56
2023/12/13 01:28:44;;;;;;;;;;;;;;;;;;5049696;28;5144;-55
2023/12/13 01:31:09;;;;;;;;;;;;;;;;;;5058627;28;1508;-55
2023/12/13 01:33:35;;;;;;;;;;;;;;;;;;5060850;28;4452;-55
2023/12/13 01:36:03;;;;;;;;;;;;;;;;;;5063322;28;4983;-57
2023/12/13 01:38:28;;;;;;;;;;;;;;;;;;5056006;28;5079;-55
2023/12/13 01:40:54;;;;;;;;;;;;;;;;;;5055707;28;5154;-56
2023/12/13 01:43:20;;;;;;;;;;;;;;;;;;5057420;28;5108;-57
2023/12/13 01:45:45;;;;;;;;;;;;;;;;;;5062047;28;1134;-56
2023/12/13 01:48:11;;;;;;;;;;;;;;;;;;5059611;28;4657;-56
2023/12/13 01:50:36;;;;;;;;;;;;;;;;;;5057473;28;5872;-57
2023/12/13 01:53:01;;;;;;;;;;;;;;;;;;5063868;28;5139;-55
2023/12/13 01:55:27;;;;;;;;;;;;;;;;;;5053734;28;5106;-57
2023/12/13 01:57:52;;;;;;;;;;;;;;;;;;5057843;28;3234;-56
2023/12/13 02:00:17;;;;;;;;;;;;;;;;;;5041967;28;5062;-56
2023/12/13 02:02:43;;;;;;;;;;;;;;;;;;5051610;28;5114;-58
2023/12/13 02:05:08;;;;;;;;;;;;;;;;;;5053517;28;5109;-56
2023/12/13 02:07:34;;;;;;;;;;;;;;;;;;5055164;28;4513;-56
2023/12/13 02:09:59;;;;;;;;;;;;;;;;;;5054274;28;3150;-56
2023/12/13 02:12:25;;;;;;;;;;;;;;;;;;5056116;28;5028;-58
2023/12/13 02:14:50;;;;;;;;;;;;;;;;;;5059269;28;5054;-57
2023/12/13 02:17:15;;;;;;;;;;;;;;;;;;5059434;28;5330;-57
2023/12/13 02:19:41;;;;;;;;;;;;;;;;;;5058657;28;5095;-57
2023/12/13 02:22:07;;;;;;;;;;;;;;;;;;5065906;28;1910;-56
2023/12/13 02:24:32;;;;;;;;;;;;;;;;;;5059304;28;5054;-58
2023/12/13 02:26:57;;;;;;;;;;;;;;;;;;5039357;28;5045;-56
2023/12/13 02:29:22;;;;;;;;;;;;;;;;;;5062037;28;5022;-56
2023/12/13 02:31:48;;;;;;;;;;;;;;;;;;5065248;28;5070;-56
2023/12/13 02:34:13;;;;;;;;;;;;;;;;;;5056029;28;3370;-55
2023/12/13 02:36:43;;;;;;;;;;;;;;;;;;5049582;28;5083;-55
2023/12/13 02:39:08;;;;;;;;;;;;;;;;;;5050689;28;5079;-57
2023/12/13 02:41:34;;;;;;;;;;;;;;;;;;5052514;28;4904;-56
2023/12/13 02:44:00;;;;;;;;;;;;;;;;;;5070064;28;5164;-57
2023/12/13 02:46:25;;;;;;;;;;;;;;;;;;5072384;28;5156;-56
2023/12/13 02:48:51;;;;;;;;;;;;;;;;;;5052334;28;3278;-56
2023/12/13 02:51:16;;;;;;;;;;;;;;;;;;5065156;28;4474;-57
2023/12/13 02:53:41;;;;;;;;;;;;;;;;;;5049617;28;5338;-56
2023/12/13 02:56:07;;;;;;;;;;;;;;;;;;5054805;28;5105;-58
2023/12/13 02:58:32;;;;;;;;;;;;;;;;;;5059242;28;5234;-56
2023/12/13 03:00:57;;;;;;;;;;;;;;;;;;5059009;28;3263;-57
2023/12/13 03:03:23;;;;;;;;;;;;;;;;;;5050133;28;4677;-56
2023/12/13 03:05:48;;;;;;;;;;;;;;;;;;5057467;28;5166;-56
2023/12/13 03:08:16;;;;;;;;;;;;;;;;;;5051150;28;5185;-56
2023/12/13 03:10:42;;;;;;;;;;;;;;;;;;5054323;28;5025;-56
2023/12/13 03:13:07;;;;;;;;;;;;;;;;;;5054461;28;3278;-57
2023/12/13 03:15:33;;;;;;;;;;;;;;;;;;5054998;28;4649;-56
2023/12/13 03:17:58;;;;;;;;;;;;;;;;;;5052995;28;5101;-57
2023/12/13 03:20:23;;;;;;;;;;;;;;;;;;5051940;28;5157;-56
2023/12/13 03:22:49;;;;;;;;;;;;;;;;;;5068272;28;5134;-56
2023/12/13 03:25:15;;;;;;;;;;;;;;;;;;5048455;28;4932;-56
2023/12/13 03:27:42;;;;;;;;;;;;;;;;;;5072780;28;3318;-55
2023/12/13 03:30:08;;;;;;;;;;;;;;;;;;5056782;28;5147;-56
2023/12/13 03:32:34;;;;;;;;;;;;;;;;;;5051045;28;4670;-56
2023/12/13 03:34:59;;;;;;;;;;;;;;;;;;5056021;28;4503;-55
2023/12/13 03:37:24;;;;;;;;;;;;;;;;;;5058716;28;5160;-56
2023/12/13 03:39:49;;;;;;;;;;;;;;;;;;5050393;28;3300;-57
2023/12/13 03:42:15;;;;;;;;;;;;;;;;;;5061439;28;5063;-55
2023/12/13 03:44:40;;;;;;;;;;;;;;;;;;5047812;28;4718;-57
2023/12/13 03:47:06;;;;;;;;;;;;;;;;;;5049471;28;5097;-58
2023/12/13 03:49:31;;;;;;;;;;;;;;;;;;5057671;28;5101;-58
2023/12/13 03:51:57;;;;;;;;;;;;;;;;;;5059552;28;5088;-58
2023/12/13 03:54:22;;;;;;;;;;;;;;;;;;5060128;28;4917;-58
2023/12/13 03:56:47;;;;;;;;;;;;;;;;;;5053663;28;5080;-56
2023/12/13 03:59:13;;;;;;;;;;;;;;;;;;5057571;28;5308;-57
2023/12/13 04:01:38;;;;;;;;;;;;;;;;;;5052547;28;5231;-58
2023/12/13 04:04:03;;;;;;;;;;;;;;;;;;5052338;28;3318;-57
2023/12/13 04:06:28;;;;;;;;;;;;;;;;;;5052661;28;4982;-55
2023/12/13 04:08:54;;;;;;;;;;;;;;;;;;5056834;28;5028;-57
2023/12/13 04:11:19;;;;;;;;;;;;;;;;;;5051789;28;5043;-57
2023/12/13 04:13:45;;;;;;;;;;;;;;;;;;5055129;28;5166;-56
2023/12/13 04:16:10;;;;;;;;;;;;;;;;;;5055440;28;3282;-56
2023/12/13 04:18:36;;;;;;;;;;;;;;;;;;5049547;28;5059;-57
2023/12/13 04:21:02;;;;;;;;;;;;;;;;;;5049209;28;5079;-57
2023/12/13 04:23:27;;;;;;;;;;;;;;;;;;5053525;28;5054;-56
2023/12/13 04:25:52;;;;;;;;;;;;;;;;;;5050898;28;5225;-55
2023/12/13 04:28:17;;;;;;;;;;;;;;;;;;5057562;28;5114;-57
2023/12/13 04:30:43;;;;;;;;;;;;;;;;;;5032061;28;3772;-57
2023/12/13 04:33:08;;;;;;;;;;;;;;;;;;5052221;28;5134;-55
2023/12/13 04:35:34;;;;;;;;;;;;;;;;;;5052962;28;5027;-56
2023/12/13 04:37:59;;;;;;;;;;;;;;;;;;5053817;28;4913;-57
2023/12/13 04:40:24;;;;;;;;;;;;;;;;;;5059310;28;5312;-55
2023/12/13 04:42:49;;;;;;;;;;;;;;;;;;5052357;28;3740;-56
2023/12/13 04:45:15;;;;;;;;;;;;;;;;;;5044374;28;4923;-54
2023/12/13 04:47:40;;;;;;;;;;;;;;;;;;5049479;28;5162;-55
2023/12/13 04:50:06;;;;;;;;;;;;;;;;;;5053627;28;5121;-58
2023/12/13 04:52:31;;;;;;;;;;;;;;;;;;5034966;28;5184;-57
2023/12/13 04:54:56;;;;;;;;;;;;;;;;;;5059620;28;3303;-56
2023/12/13 04:57:22;;;;;;;;;;;;;;;;;;5051308;28;4936;-55
2023/12/13 04:59:47;;;;;;;;;;;;;;;;;;5056996;28;5055;-57
2023/12/13 05:02:12;;;;;;;;;;;;;;;;;;5034085;28;4555;-57
2023/12/13 05:04:38;;;;;;;;;;;;;;;;;;5054954;28;4973;-56
2023/12/13 05:07:03;;;;;;;;;;;;;;;;;;5032638;28;3333;-53
2023/12/13 05:09:28;;;;;;;;;;;;;;;;;;5059678;28;4632;-56
2023/12/13 05:11:54;;;;;;;;;;;;;;;;;;5050252;28;4603;-55
2023/12/13 05:14:19;;;;;;;;;;;;;;;;;;5056147;28;5298;-56
2023/12/13 05:16:44;;;;;;;;;;;;;;;;;;5060343;28;5301;-56
2023/12/13 05:19:09;;;;;;;;;;;;;;;;;;5054600;28;3277;-56
2023/12/13 05:21:35;;;;;;;;;;;;;;;;;;5048077;28;4995;-57
2023/12/13 05:24:00;;;;;;;;;;;;;;;;;;5054222;28;4585;-55
2023/12/13 05:26:26;;;;;;;;;;;;;;;;;;5051171;28;5053;-55
2023/12/13 05:28:51;;;;;;;;;;;;;;;;;;5047411;28;5118;-56
2023/12/13 05:31:17;;;;;;;;;;;;;;;;;;5075421;28;4595;-58
2023/12/13 05:33:42;;;;;;;;;;;;;;;;;;5056729;28;3586;-56
2023/12/13 05:36:08;;;;;;;;;;;;;;;;;;5057041;28;4984;-57
2023/12/13 05:38:33;;;;;;;;;;;;;;;;;;5046983;28;5250;-56
2023/12/13 05:40:59;;;;;;;;;;;;;;;;;;5046906;28;4621;-57
2023/12/13 05:43:24;;;;;;;;;;;;;;;;;;5047828;28;5204;-57
2023/12/13 05:45:50;;;;;;;;;;;;;;;;;;5050964;28;3317;-57
2023/12/13 05:48:15;;;;;;;;;;;;;;;;;;5050884;28;5328;-57
2023/12/13 05:50:40;;;;;;;;;;;;;;;;;;5055968;28;5132;-56
2023/12/13 05:53:06;;;;;;;;;;;;;;;;;;5065508;28;5060;-56
2023/12/13 05:55:31;;;;;;;;;;;;;;;;;;5060559;28;4577;-57
2023/12/13 05:57:56;;;;;;;;;;;;;;;;;;5058607;28;3368;-56
2023/12/13 06:00:22;;;;;;;;;;;;;;;;;;5060334;28;5096;-56
2023/12/13 06:02:47;;;;;;;;;;;;;;;;;;5050389;28;5346;-54
2023/12/13 06:05:14;;;;;;;;;;;;;;;;;;5056337;28;4522;-56
2023/12/13 06:07:39;;;;;;;;;;;;;;;;;;5051763;28;5196;-56
2023/12/13 06:10:05;;;;;;;;;;;;;;;;;;5064653;28;1206;-56
2023/12/13 06:12:31;;;;;;;;;;;;;;;;;;5056901;28;5254;-59
2023/12/13 06:14:58;;;;;;;;;;;;;;;;;;5057087;28;5116;-56
2023/12/13 06:17:23;;;;;;;;;;;;;;;;;;5060404;28;4919;-56
2023/12/13 06:19:48;;;;;;;;;;;;;;;;;;5058340;28;4530;-56
2023/12/13 06:22:14;;;;;;;;;;;;;;;;;;5058333;28;4664;-57
2023/12/13 06:24:39;;;;;;;;;;;;;;;;;;5054015;28;3431;-56
2023/12/13 06:27:04;;;;;;;;;;;;;;;;;;5055957;28;5085;-56
2023/12/13 06:29:30;;;;;;;;;;;;;;;;;;5060391;28;4504;-56
2023/12/13 06:31:55;;;;;;;;;;;;;;;;;;5063571;28;5001;-57
2023/12/13 06:34:20;;;;;;;;;;;;;;;;;;5065077;28;5115;-57
2023/12/13 06:36:45;;;;;;;;;;;;;;;;;;5056455;28;1644;-56
2023/12/13 06:39:11;;;;;;;;;;;;;;;;;;5062169;28;5018;-57
2023/12/13 06:41:39;;;;;;;;;;;;;;;;;;5057682;28;4670;-58
2023/12/13 06:44:05;;;;;;;;;;;;;;;;;;5054681;28;4532;-55
2023/12/13 06:46:30;;;;;;;;;;;;;;;;;;5064252;28;4571;-57
2023/12/13 06:48:55;;;;;;;;;;;;;;;;;;5062760;28;1369;-61
2023/12/13 06:51:21;;;;;;;;;;;;;;;;;;5075232;28;5084;-61
2023/12/13 06:53:46;;;;;;;;;;;;;;;;;;5064937;28;5163;-63
2023/12/13 06:56:12;;;;;;;;;;;;;;;;;;5063920;28;5100;-61
2023/12/13 06:58:37;;;;;;;;;;;;;;;;;;5069273;28;4800;-60
2023/12/13 07:01:04;;;;;;;;;;;;;;;;;;5064485;28;3292;-63
2023/12/13 07:03:29;;;;;;;;;;;;;;;;;;5061791;28;5043;-63
2023/12/13 07:05:54;;;;;;;;;;;;;;;;;;5054879;28;5121;-61
2023/12/13 07:08:20;;;;;;;;;;;;;;;;;;5054896;28;4663;-61
2023/12/13 07:10:45;;;;;;;;;;;;;;;;;;5066096;28;5026;-61
2023/12/13 07:13:11;;;;;;;;;;;;;;;;;;5059380;28;3322;-60
2023/12/13 07:15:37;;;;;;;;;;;;;;;;;;5066453;28;4852;-62
2023/12/13 07:18:02;;;;;;;;;;;;;;;;;;5059671;28;4990;-63
2023/12/13 07:20:30;;;;;;;;;;;;;;;;;;5057427;28;5073;-62
2023/12/13 07:22:56;;;;;;;;;;;;;;;;;;5062916;28;4842;-60
2023/12/13 07:25:21;;;;;;;;;;;;;;;;;;5068616;28;4605;-63
2023/12/13 07:27:47;;;;;;;;;;;;;;;;;;5067026;28;2323;-62
2023/12/13 07:30:12;;;;;;;;;;;;;;;;;;5068464;28;4970;-61
2023/12/13 07:32:38;;;;;;;;;;;;;;;;;;5051387;28;4709;-61
2023/12/13 07:35:04;;;;;;;;;;;;;;;;;;5064360;28;5364;-63
2023/12/13 07:37:29;;;;;;;;;;;;;;;;;;5055816;28;5124;-60
2023/12/13 07:39:55;;;;;;;;;;;;;;;;;;5061145;28;1086;-60
2023/12/13 07:42:20;;;;;;;;;;;;;;;;;;5060811;28;5182;-60
2023/12/13 07:44:46;;;;;;;;;;;;;;;;;;5064152;28;5320;-64
2023/12/13 07:47:12;;;;;;;;;;;;;;;;;;5059312;28;5076;-60
2023/12/13 07:49:37;;;;;;;;;;;;;;;;;;5058890;28;5066;-62
2023/12/13 07:52:04;;;;;;;;;;;;;;;;;;5071521;28;4988;-63
2023/12/13 07:54:30;;;;;;;;;;;;;;;;;;5068288;28;5079;-62
2023/12/13 07:56:55;;;;;;;;;;;;;;;;;;5080765;28;5186;-61
2023/12/13 07:59:20;;;;;;;;;;;;;;;;;;5066858;28;4509;-61
2023/12/13 08:01:46;;;;;;;;;;;;;;;;;;5064971;28;4573;-62
2023/12/13 08:04:11;;;;;;;;;;;;;;;;;;5060788;28;1136;-60
2023/12/13 08:06:36;;;;;;;;;;;;;;;;;;5067941;28;4966;-60
2023/12/13 08:09:02;;;;;;;;;;;;;;;;;;5066522;28;5050;-62
2023/12/13 08:11:28;;;;;;;;;;;;;;;;;;5065341;28;5017;-61
2023/12/13 08:13:53;;;;;;;;;;;;;;;;;;5052883;28;5106;-61
2023/12/13 08:16:19;;;;;;;;;;;;;;;;;;5058318;28;4802;-62
2023/12/13 08:18:44;;;;;;;;;;;;;;;;;;5064133;28;1536;-61
2023/12/13 08:21:09;;;;;;;;;;;;;;;;;;5067336;28;5054;-63
2023/12/13 08:23:35;;;;;;;;;;;;;;;;;;5067542;28;4540;-61
2023/12/13 08:26:00;;;;;;;;;;;;;;;;;;5055537;28;4665;-61
2023/12/13 08:28:25;;;;;;;;;;;;;;;;;;5059488;28;5137;-61
2023/12/13 08:30:51;;;;;;;;;;;;;;;;;;5059604;28;1238;-60
2023/12/13 08:33:16;;;;;;;;;;;;;;;;;;5064139;28;5095;-60
2023/12/13 08:35:41;;;;;;;;;;;;;;;;;;5066486;28;5189;-62
2023/12/13 08:38:06;;;;;;;;;;;;;;;;;;5065124;28;5087;-61
2023/12/13 08:40:32;;;;;;;;;;;;;;;;;;5060288;28;5868;-62
2023/12/13 08:42:57;;;;;;;;;;;;;;;;;;5052849;28;1166;-61
2023/12/13 08:45:22;;;;;;;;;;;;;;;;;;5050759;28;4964;-61
2023/12/13 08:47:48;;;;;;;;;;;;;;;;;;5058100;28;5211;-60
2023/12/13 08:50:14;;;;;;;;;;;;;;;;;;5064148;28;5211;-62
2023/12/13 08:52:40;;;;;;;;;;;;;;;;;;5071388;28;5091;-62
2023/12/13 08:55:10;;;;;;;;;;;;;;;;;;5065894;28;3126;-61
2023/12/13 08:57:35;;;;;;;;;;;;;;;;;;5042028;28;5376;-62
2023/12/13 09:00:00;;;;;;;;;;;;;;;;;;5066665;28;5058;-61
2023/12/13 09:02:26;;;;;;;;;;;;;;;;;;5060304;28;5112;-61
2023/12/13 09:04:51;;;;;;;;;;;;;;;;;;5052829;28;5102;-61
2023/12/13 09:07:17;;;;;;;;;;;;;;;;;;5059232;28;5123;-60
2023/12/13 09:09:43;;;;;;;;;;;;;;;;;;5065545;28;1547;-62
2023/12/13 09:12:08;;;;;;;;;;;;;;;;;;5055878;28;4609;-61
2023/12/13 09:14:33;;;;;;;;;;;;;;;;;;5057707;28;5118;-60
2023/12/13 09:17:01;;;;;;;;;;;;;;;;;;5061777;28;5166;-59
2023/12/13 09:19:26;;;;;;;;;;;;;;;;;;5059497;28;4513;-61
2023/12/13 09:21:51;;;;;;;;;;;;;;;;;;5060805;28;3244;-61
2023/12/13 09:24:17;;;;;;;;;;;;;;;;;;5059189;28;5013;-62
2023/12/13 09:26:42;;;;;;;;;;;;;;;;;;5039709;28;5146;-61
2023/12/13 09:29:08;;;;;;;;;;;;;;;;;;5042705;28;5059;-63
2023/12/13 09:31:34;;;;;;;;;;;;;;;;;;5063591;28;5039;-63
2023/12/13 09:33:59;;;;;;;;;;;;;;;;;;5063359;28;2128;-63
2023/12/13 09:36:24;;;;;;;;;;;;;;;;;;5064937;28;4507;-62
2023/12/13 09:38:49;;;;;;;;;;;;;;;;;;5053346;28;5210;-61
2023/12/13 09:41:25;;;;;;;;;;;;;;;;;;5060458;28;5075;-61
2023/12/13 09:43:50;;;;;;;;;;;;;;;;;;5064878;28;5049;-64
2023/12/13 09:46:17;;;;;;;;;;;;;;;;;;5062497;28;4963;-62
2023/12/13 09:48:42;;;;;;;;;;;;;;;;;;5080963;28;1484;-62
2023/12/13 09:51:09;;;;;;;;;;;;;;;;;;5069215;28;4933;-61
2023/12/13 09:53:34;;;;;;;;;;;;;;;;;;5073279;28;4878;-62
2023/12/13 09:56:00;;;;;;;;;;;;;;;;;;5059340;28;4844;-61
2023/12/13 09:58:26;;;;;;;;;;;;;;;;;;5063630;28;5071;-64
2023/12/13 10:00:51;;;;;;;;;;;;;;;;;;5065130;28;3248;-60
2023/12/13 10:03:16;;;;;;;;;;;;;;;;;;5056130;28;5004;-60
2023/12/13 10:05:41;;;;;;;;;;;;;;;;;;5055627;28;4693;-63
2023/12/13 10:08:08;;;;;;;;;;;;;;;;;;5038463;28;4502;-62
2023/12/13 10:10:35;;;;;;;;;;;;;;;;;;5062219;28;4568;-60
2023/12/13 10:13:01;;;;;;;;;;;;;;;;;;5066998;28;1168;-62
2023/12/13 10:15:32;;;;;;;;;;;;;;;;;;5065811;28;4977;-61
2023/12/13 10:17:58;;;;;;;;;;;;;;;;;;5064696;28;4955;-60
2023/12/13 10:20:24;;;;;;;;;;;;;;;;;;5070529;28;5079;-61
2023/12/13 10:22:49;;;;;;;;;;;;;;;;;;5073555;28;5327;-62
2023/12/13 10:25:15;;;;;;;;;;;;;;;;;;5060073;28;5215;-60
2023/12/13 10:27:41;;;;;;;;;;;;;;;;;;5062728;28;3224;-61
2023/12/13 10:30:07;;;;;;;;;;;;;;;;;;5064111;28;4462;-61
2023/12/13 10:32:33;;;;;;;;;;;;;;;;;;5081579;28;4515;-61
2023/12/13 10:34:58;;;;;;;;;;;;;;;;;;5059574;28;4980;-62
2023/12/13 10:37:26;;;;;;;;;;;;;;;;;;5064762;28;5116;-60
2023/12/13 10:39:53;;;;;;;;;;;;;;;;;;5077562;28;1293;-62
2023/12/13 10:42:18;;;;;;;;;;;;;;;;;;5060781;28;5561;-60
2023/12/13 10:44:44;;;;;;;;;;;;;;;;;;5077547;28;5090;-61
2023/12/13 10:47:09;;;;;;;;;;;;;;;;;;5063648;28;5117;-62
2023/12/13 10:49:37;;;;;;;;;;;;;;;;;;5057674;28;4925;-61
2023/12/13 10:52:04;;;;;;;;;;;;;;;;;;5081430;28;5247;-60
2023/12/13 10:54:30;;;;;;;;;;;;;;;;;;5031249;28;4989;-60
2023/12/13 10:56:56;;;;;;;;;;;;;;;;;;5081833;28;5093;-62
2023/12/13 10:59:21;;;;;;;;;;;;;;;;;;5065308;28;5622;-61
2023/12/13 11:01:47;;;;;;;;;;;;;;;;;;5086369;28;5090;-61
2023/12/13 11:04:12;;;;;;;;;;;;;;;;;;5071850;28;3235;-62
2023/12/13 11:06:38;;;;;;;;;;;;;;;;;;5074183;28;5115;-62
2023/12/13 11:09:13;;;;;;;;;;;;;;;;;;5068798;28;5080;-61
2023/12/13 11:11:39;;;;;;;;;;;;;;;;;;5063160;28;4515;-61
2023/12/13 11:14:04;;;;;;;;;;;;;;;;;;5067420;28;5305;-61
2023/12/13 11:16:36;;;;;;;;;;;;;;;;;;5081268;28;4484;-61
2023/12/13 11:19:02;;;;;;;;;;;;;;;;;;5065998;28;1389;-59
2023/12/13 11:21:32;;;;;;;;;;;;;;;;;;5066489;28;4459;-62
2023/12/13 11:24:08;;;;;;;;;;;;;;;;;;5045407;28;4496;-63
2023/12/13 11:26:33;;;;;;;;;;;;;;;;;;5059829;28;4839;-61
2023/12/13 11:28:59;;;;;;;;;;;;;;;;;;5077487;28;5106;-61
2023/12/13 11:31:25;;;;;;;;;;;;;;;;;;5059058;28;5261;-61
2023/12/13 11:33:56;;;;;;;;;;;;;;;;;;5068444;28;1136;-60
2023/12/13 11:36:22;;;;;;;;;;;;;;;;;;5068312;28;5084;-61
2023/12/13 11:38:48;;;;;;;;;;;;;;;;;;5065448;28;5033;-61
2023/12/13 11:41:14;;;;;;;;;;;;;;;;;;5065273;28;5583;-59
2023/12/13 11:43:40;;;;;;;;;;;;;;;;;;5074457;28;4879;-60
2023/12/13 11:46:05;;;;;;;;;;;;;;;;;;5060701;28;1102;-61
2023/12/13 11:48:31;;;;;;;;;;;;;;;;;;5065599;28;5254;-61
2023/12/13 11:50:56;;;;;;;;;;;;;;;;;;5063204;28;5159;-62
2023/12/13 11:53:21;;;;;;;;;;;;;;;;;;5072517;28;5004;-61
2023/12/13 11:55:46;;;;;;;;;;;;;;;;;;5065344;28;5111;-62
2023/12/13 11:58:14;;;;;;;;;;;;;;;;;;5059955;28;3245;-62
2023/12/13 12:00:41;;;;;;;;;;;;;;;;;;5045138;28;5160;-61
2023/12/13 12:03:06;;;;;;;;;;;;;;;;;;5059607;28;5078;-62
2023/12/13 12:05:32;;;;;;;;;;;;;;;;;;5078229;28;4889;-62
2023/12/13 12:07:58;;;;;;;;;;;;;;;;;;5066911;28;5048;-61
2023/12/13 12:10:23;;;;;;;;;;;;;;;;;;5067636;28;5086;-62
2023/12/13 12:12:48;;;;;;;;;;;;;;;;;;5064494;28;2222;-61
2023/12/13 12:15:14;;;;;;;;;;;;;;;;;;5065174;28;5606;-61
2023/12/13 12:17:39;;;;;;;;;;;;;;;;;;5062663;28;5257;-61
2023/12/13 12:20:05;;;;;;;;;;;;;;;;;;5077852;28;4521;-60
2023/12/13 12:22:33;;;;;;;;;;;;;;;;;;5076356;28;5062;-63
2023/12/13 12:24:59;;;;;;;;;;;;;;;;;;5064281;28;1157;-60
2023/12/13 12:27:25;;;;;;;;;;;;;;;;;;5055353;28;4489;-61
2023/12/13 12:29:50;;;;;;;;;;;;;;;;;;5067535;28;4977;-63
2023/12/13 12:32:16;;;;;;;;;;;;;;;;;;5059523;28;5124;-61
2023/12/13 12:34:46;;;;;;;;;;;;;;;;;;5067151;28;4613;-60
2023/12/13 12:37:11;;;;;;;;;;;;;;;;;;5069961;28;1175;-60
2023/12/13 12:39:36;;;;;;;;;;;;;;;;;;5067399;28;4995;-59
2023/12/13 12:42:03;;;;;;;;;;;;;;;;;;5052048;28;5229;-60
2023/12/13 12:44:28;;;;;;;;;;;;;;;;;;5074241;28;5202;-63
2023/12/13 12:46:53;;;;;;;;;;;;;;;;;;5060928;28;5075;-61
2023/12/13 12:49:19;;;;;;;;;;;;;;;;;;5062295;28;5166;-63
2023/12/13 12:51:44;;;;;;;;;;;;;;;;;;5057494;28;4996;-62
2023/12/13 12:54:09;;;;;;;;;;;;;;;;;;5066910;28;4969;-61
2023/12/13 12:56:36;;;;;;;;;;;;;;;;;;5057258;28;4725;-60
2023/12/13 12:59:02;;;;;;;;;;;;;;;;;;5051982;28;5238;-62
2023/12/13 13:01:27;;;;;;;;;;;;;;;;;;5062431;28;5163;-61
2023/12/13 13:03:54;;;;;;;;;;;;;;;;;;5083002;28;1080;-60
2023/12/13 13:06:19;;;;;;;;;;;;;;;;;;5060083;28;5107;-62
2023/12/13 13:08:44;;;;;;;;;;;;;;;;;;5064121;28;5053;-61
2023/12/13 13:11:10;;;;;;;;;;;;;;;;;;5052603;28;4642;-62
2023/12/13 13:13:35;;;;;;;;;;;;;;;;;;5077939;28;5067;-60
2023/12/13 13:16:00;;;;;;;;;;;;;;;;;;5047671;28;1311;-62
2023/12/13 13:18:26;;;;;;;;;;;;;;;;;;5056073;28;4900;-63
2023/12/13 13:20:51;;;;;;;;;;;;;;;;;;5061964;28;5067;-61
2023/12/13 13:23:16;;;;;;;;;;;;;;;;;;5062449;28;4969;-61
2023/12/13 13:25:42;;;;;;;;;;;;;;;;;;5059625;28;4481;-61
2023/12/13 13:28:07;;;;;;;;;;;;;;;;;;5058305;28;3213;-62
2023/12/13 13:30:32;;;;;;;;;;;;;;;;;;5065619;28;4579;-63
2023/12/13 13:32:58;;;;;;;;;;;;;;;;;;5066308;28;4999;-61
2023/12/13 13:35:24;;;;;;;;;;;;;;;;;;5057286;28;4880;-61
2023/12/13 13:37:49;;;;;;;;;;;;;;;;;;5063682;28;4889;-62
2023/12/13 13:40:15;;;;;;;;;;;;;;;;;;5066488;28;5130;-61
2023/12/13 13:42:40;;;;;;;;;;;;;;;;;;5064866;28;3329;-62
2023/12/13 13:45:06;;;;;;;;;;;;;;;;;;5061865;28;5187;-61
2023/12/13 13:47:32;;;;;;;;;;;;;;;;;;5081836;28;5075;-60
2023/12/13 13:49:57;;;;;;;;;;;;;;;;;;5062006;28;4560;-60
2023/12/13 13:52:22;;;;;;;;;;;;;;;;;;5060126;28;5059;-61
2023/12/13 13:54:48;;;;;;;;;;;;;;;;;;5059010;28;3314;-61
2023/12/13 13:57:13;;;;;;;;;;;;;;;;;;5061680;28;5017;-60
2023/12/13 13:59:38;;;;;;;;;;;;;;;;;;5065681;28;4494;-60
2023/12/13 14:02:04;;;;;;;;;;;;;;;;;;5063122;28;5179;-61
2023/12/13 14:04:29;;;;;;;;;;;;;;;;;;5073922;28;5027;-60
2023/12/13 14:06:54;;;;;;;;;;;;;;;;;;5055907;28;1832;-61
2023/12/13 14:09:19;;;;;;;;;;;;;;;;;;5066286;28;5087;-61
2023/12/13 14:11:45;;;;;;;;;;;;;;;;;;5060481;28;4689;-61
2023/12/13 14:14:11;;;;;;;;;;;;;;;;;;5069694;28;4580;-62
2023/12/13 14:16:36;;;;;;;;;;;;;;;;;;5070224;28;5045;-63
2023/12/13 14:19:05;;;;;;;;;;;;;;;;;;5068330;28;1488;-60
2023/12/13 14:21:30;;;;;;;;;;;;;;;;;;5058083;28;4963;-61
2023/12/13 14:23:56;;;;;;;;;;;;;;;;;;5039559;28;4562;-61
2023/12/13 14:26:21;;;;;;;;;;;;;;;;;;5067846;28;4579;-60
2023/12/13 14:28:46;;;;;;;;;;;;;;;;;;5065042;28;5703;-60
2023/12/13 14:31:11;;;;;;;;;;;;;;;;;;5066400;28;3324;-62
2023/12/13 14:33:37;;;;;;;;;;;;;;;;;;5064952;28;5193;-61
2023/12/13 14:36:02;;;;;;;;;;;;;;;;;;5070354;28;4497;-60
2023/12/13 14:38:27;;;;;;;;;;;;;;;;;;5064480;28;5098;-58
2023/12/13 14:40:53;;;;;;;;;;;;;;;;;;5062491;28;5142;-61
2023/12/13 14:43:18;;;;;;;;;;;;;;;;;;5068337;28;5000;-62
2023/12/13 14:45:44;;;;;;;;;;;;;;;;;;5069117;28;1112;-60
2023/12/13 14:48:09;;;;;;;;;;;;;;;;;;5055960;28;4951;-63
2023/12/13 14:50:35;;;;;;;;;;;;;;;;;;5060907;28;4473;-61
2023/12/13 14:53:01;;;;;;;;;;;;;;;;;;5068364;28;5147;-62
2023/12/13 14:55:26;;;;;;;;;;;;;;;;;;5058689;28;5171;-64
2023/12/13 14:57:51;;;;;;;;;;;;;;;;;;5029690;28;3625;-60
2023/12/13 15:00:17;;;;;;;;;;;;;;;;;;5058115;28;4588;-60
2023/12/13 15:02:42;;;;;;;;;;;;;;;;;;5065704;28;4863;-61
2023/12/13 15:05:08;;;;;;;;;;;;;;;;;;5047670;28;5041;-61
2023/12/13 15:07:34;;;;;;;;;;;;;;;;;;5059127;28;5100;-60
2023/12/13 15:09:59;;;;;;;;;;;;;;;;;;5068031;28;3148;-60
2023/12/13 15:12:25;;;;;;;;;;;;;;;;;;5068444;28;4626;-60
2023/12/13 15:14:50;;;;;;;;;;;;;;;;;;5068056;28;5206;-63
2023/12/13 15:17:15;;;;;;;;;;;;;;;;;;5054477;28;5243;-62
2023/12/13 15:19:41;;;;;;;;;;;;;;;;;;5062208;28;5078;-53
2023/12/13 15:22:06;;;;;;;;;;;;;;;;;;5063835;28;3838;-54
2023/12/13 15:24:31;;;;;;;;;;;;;;;;;;5049515;28;4953;-54
2023/12/13 15:26:57;;;;;;;;;;;;;;;;;;5060438;28;5188;-53
2023/12/13 15:29:22;;;;;;;;;;;;;;;;;;5058865;28;4593;-62
2023/12/13 15:31:47;;;;;;;;;;;;;;;;;;5052302;28;5101;-65
2023/12/13 15:34:15;;;;;;;;;;;;;;;;;;5054980;28;3406;-63
2023/12/13 15:36:42;;;;;;;;;;;;;;;;;;5033153;28;5240;-67
2023/12/13 15:39:07;;;;;;;;;;;;;;;;;;5051938;28;4499;-69
2023/12/13 15:41:32;;;;;;;;;;;;;;;;;;5053039;28;5076;-66
2023/12/13 15:43:58;;;;;;;;;;;;;;;;;;5051340;28;4991;-64
2023/12/13 15:46:23;;;;;;;;;;;;;;;;;;5057268;28;5072;-66
2023/12/13 15:48:48;;;;;;;;;;;;;;;;;;5061769;28;3374;-67
2023/12/13 15:51:14;;;;;;;;;;;;;;;;;;5048215;28;5142;-65
2023/12/13 15:53:39;;;;;;;;;;;;;;;;;;5066201;28;5315;-67
2023/12/13 15:56:04;;;;;;;;;;;;;;;;;;5058136;28;5130;-66
2023/12/13 15:58:30;;;;;;;;;;;;;;;;;;5066166;28;5105;-67
2023/12/13 16:00:55;;;;;;;;;;;;;;;;;;5058706;28;3286;-66
2023/12/13 16:03:20;;;;;;;;;;;;;;;;;;5057330;28;5065;-68
2023/12/13 16:05:46;;;;;;;;;;;;;;;;;;5059283;28;5114;-66
2023/12/13 16:08:11;;;;;;;;;;;;;;;;;;5068079;28;4693;-67
2023/12/13 16:10:36;;;;;;;;;;;;;;;;;;5065983;28;4911;-66
2023/12/13 16:13:02;;;;;;;;;;;;;;;;;;5055863;28;1101;-67
2023/12/13 16:15:27;;;;;;;;;;;;;;;;;;5057401;28;5317;-70
2023/12/13 16:17:53;;;;;;;;;;;;;;;;;;5053652;28;5061;-67
2023/12/13 16:20:18;;;;;;;;;;;;;;;;;;5066331;28;4973;-66
2023/12/13 16:22:43;;;;;;;;;;;;;;;;;;5045068;28;4622;-66
2023/12/13 16:25:09;;;;;;;;;;;;;;;;;;5063349;28;3234;-66
2023/12/13 16:27:34;;;;;;;;;;;;;;;;;;5062417;28;4447;-67
2023/12/13 16:29:59;;;;;;;;;;;;;;;;;;5064586;28;4784;-65
2023/12/13 16:32:25;;;;;;;;;;;;;;;;;;5064562;28;5264;-66
2023/12/13 16:34:50;;;;;;;;;;;;;;;;;;5067650;28;5081;-67
2023/12/13 16:37:17;;;;;;;;;;;;;;;;;;5066614;28;4610;-67
2023/12/13 16:39:42;;;;;;;;;;;;;;;;;;5064436;28;2250;-66
2023/12/13 16:42:08;;;;;;;;;;;;;;;;;;5057984;28;4551;-68
2023/12/13 16:44:33;;;;;;;;;;;;;;;;;;5056013;28;4565;-69
2023/12/13 16:46:58;;;;;;;;;;;;;;;;;;5056733;28;5237;-66
2023/12/13 16:49:24;;;;;;;;;;;;;;;;;;5044108;28;4533;-66
2023/12/13 16:51:52;;;;;;;;;;;;;;;;;;5065893;28;5088;-69